sensor_id;sensor_type;location;lat;lon;timestamp;pressure;altitude;pressure_sealevel;temperature;humidity
34482;BME280;20720;48.886;9.388;2022-12-29T00:01:13;97986.63;;;13.16;84.42
34482;BME280;20720;48.886;9.388;2022-12-29T00:03:38;97984.66;;;12.94;85.70
34482;BME280;20720;48.886;9.388;2022-12-29T00:06:04;97976.28;;;13.15;84.02
34482;BME280;20720;48.886;9.388;2022-12-29T00:08:29;97978.06;;;13.03;84.70
34482;BME280;20720;48.886;9.388;2022-12-29T00:11:12;97978.00;;;13.21;84.00
34482;BME280;20720;48.886;9.388;2022-12-29T00:13:38;97969.41;;;12.96;86.00
34482;BME280;20720;48.886;9.388;2022-12-29T00:16:22;97964.56;;;12.93;85.38
34482;BME280;20720;48.886;9.388;2022-12-29T00:18:47;97959.38;;;13.04;84.65
34482;BME280;20720;48.886;9.388;2022-12-29T00:21:15;97965.00;;;13.08;84.68
34482;BME280;20720;48.886;9.388;2022-12-29T00:23:59;97949.06;;;13.03;85.16
34482;BME280;20720;48.886;9.388;2022-12-29T00:26:43;97940.69;;;13.06;85.04
34482;BME280;20720;48.886;9.388;2022-12-29T00:29:27;97949.63;;;13.05;85.09
34482;BME280;20720;48.886;9.388;2022-12-29T00:32:11;97944.63;;;13.15;84.28
34482;BME280;20720;48.886;9.388;2022-12-29T00:34:55;97944.94;;;12.89;86.17
34482;BME280;20720;48.886;9.388;2022-12-29T00:37:33;97939.59;;;13.25;84.89
34482;BME280;20720;48.886;9.388;2022-12-29T00:40:18;97936.50;;;13.16;84.45
34482;BME280;20720;48.886;9.388;2022-12-29T00:43:01;97941.88;;;13.21;85.24
34482;BME280;20720;48.886;9.388;2022-12-29T00:45:45;97930.22;;;13.29;84.04
34482;BME280;20720;48.886;9.388;2022-12-29T00:48:10;97927.03;;;13.50;83.15
34482;BME280;20720;48.886;9.388;2022-12-29T00:50:36;97925.06;;;13.46;83.06
34482;BME280;20720;48.886;9.388;2022-12-29T00:53:01;97925.81;;;13.64;81.99
34482;BME280;20720;48.886;9.388;2022-12-29T00:55:26;97932.72;;;13.24;84.00
34482;BME280;20720;48.886;9.388;2022-12-29T00:57:52;97931.84;;;13.30;83.48
34482;BME280;20720;48.886;9.388;2022-12-29T01:00:17;97928.50;;;13.35;83.18
34482;BME280;20720;48.886;9.388;2022-12-29T01:02:42;97929.44;;;13.52;82.48
34482;BME280;20720;48.886;9.388;2022-12-29T01:05:08;97928.47;;;13.64;81.88
34482;BME280;20720;48.886;9.388;2022-12-29T01:07:33;97930.63;;;13.67;81.58
34482;BME280;20720;48.886;9.388;2022-12-29T01:09:58;97938.56;;;13.67;80.94
34482;BME280;20720;48.886;9.388;2022-12-29T01:12:36;97940.34;;;13.44;82.43
34482;BME280;20720;48.886;9.388;2022-12-29T01:15:08;97932.81;;;13.70;81.45
34482;BME280;20720;48.886;9.388;2022-12-29T01:17:34;97942.88;;;13.50;82.18
34482;BME280;20720;48.886;9.388;2022-12-29T01:20:00;97939.09;;;13.58;81.44
34482;BME280;20720;48.886;9.388;2022-12-29T01:22:26;97951.63;;;13.62;81.12
34482;BME280;20720;48.886;9.388;2022-12-29T01:24:51;97940.38;;;13.78;80.74
34482;BME280;20720;48.886;9.388;2022-12-29T01:27:16;97957.13;;;13.72;80.94
34482;BME280;20720;48.886;9.388;2022-12-29T01:29:42;97950.47;;;13.58;81.43
34482;BME280;20720;48.886;9.388;2022-12-29T01:32:07;97955.50;;;13.48;81.23
34482;BME280;20720;48.886;9.388;2022-12-29T01:34:32;97953.44;;;13.50;81.01
34482;BME280;20720;48.886;9.388;2022-12-29T01:36:57;97959.66;;;13.67;81.29
34482;BME280;20720;48.886;9.388;2022-12-29T01:39:23;97957.34;;;13.59;81.81
34482;BME280;20720;48.886;9.388;2022-12-29T01:41:48;97954.28;;;13.85;80.42
34482;BME280;20720;48.886;9.388;2022-12-29T01:44:49;97948.84;;;13.57;81.58
34482;BME280;20720;48.886;9.388;2022-12-29T01:47:36;97955.09;;;13.97;80.31
34482;BME280;20720;48.886;9.388;2022-12-29T01:50:10;97950.97;;;13.90;80.48
34482;BME280;20720;48.886;9.388;2022-12-29T01:52:40;97953.59;;;14.01;79.71
34482;BME280;20720;48.886;9.388;2022-12-29T01:55:08;97950.03;;;13.84;79.85
34482;BME280;20720;48.886;9.388;2022-12-29T01:57:38;97948.22;;;13.96;80.06
34482;BME280;20720;48.886;9.388;2022-12-29T02:00:11;97951.63;;;13.85;80.36
34482;BME280;20720;48.886;9.388;2022-12-29T02:02:37;97949.56;;;13.87;80.49
34482;BME280;20720;48.886;9.388;2022-12-29T02:05:07;97954.53;;;14.07;79.82
34482;BME280;20720;48.886;9.388;2022-12-29T02:07:34;97950.38;;;13.88;80.16
34482;BME280;20720;48.886;9.388;2022-12-29T02:10:00;97949.81;;;14.21;78.72
34482;BME280;20720;48.886;9.388;2022-12-29T02:12:26;97937.38;;;13.63;80.75
34482;BME280;20720;48.886;9.388;2022-12-29T02:14:56;97943.94;;;13.72;80.66
34482;BME280;20720;48.886;9.388;2022-12-29T02:17:30;97929.59;;;13.68;80.44
34482;BME280;20720;48.886;9.388;2022-12-29T02:23:19;97923.16;;;13.87;79.74
34482;BME280;20720;48.886;9.388;2022-12-29T02:35:01;97924.63;;;13.49;81.16
34482;BME280;20720;48.886;9.388;2022-12-29T02:37:41;97926.50;;;13.71;81.23
34482;BME280;20720;48.886;9.388;2022-12-29T02:45:31;97917.66;;;13.54;81.91
34482;BME280;20720;48.886;9.388;2022-12-29T02:50:55;97913.53;;;13.70;81.33
34482;BME280;20720;48.886;9.388;2022-12-29T02:53:23;97912.59;;;13.87;80.60
34482;BME280;20720;48.886;9.388;2022-12-29T02:56:09;97918.94;;;13.75;81.44
34482;BME280;20720;48.886;9.388;2022-12-29T02:58:34;97915.47;;;13.63;81.23
34482;BME280;20720;48.886;9.388;2022-12-29T03:04:03;97915.25;;;13.87;80.86
34482;BME280;20720;48.886;9.388;2022-12-29T03:06:43;97915.25;;;13.76;81.20
34482;BME280;20720;48.886;9.388;2022-12-29T03:09:33;97904.00;;;13.69;81.59
34482;BME280;20720;48.886;9.388;2022-12-29T03:15:34;97905.50;;;13.76;80.92
34482;BME280;20720;48.886;9.388;2022-12-29T03:18:51;97905.38;;;13.94;80.42
34482;BME280;20720;48.886;9.388;2022-12-29T03:21:34;97907.56;;;13.51;81.96
34482;BME280;20720;48.886;9.388;2022-12-29T03:24:24;97904.69;;;13.87;80.98
34482;BME280;20720;48.886;9.388;2022-12-29T03:26:53;97896.19;;;13.97;80.75
34482;BME280;20720;48.886;9.388;2022-12-29T03:29:20;97895.03;;;13.93;80.78
34482;BME280;20720;48.886;9.388;2022-12-29T03:31:47;97890.78;;;13.80;81.55
34482;BME280;20720;48.886;9.388;2022-12-29T03:34:14;97883.78;;;13.74;81.19
34482;BME280;20720;48.886;9.388;2022-12-29T03:36:48;97887.13;;;13.81;81.39
34482;BME280;20720;48.886;9.388;2022-12-29T03:39:16;97882.31;;;13.90;80.55
34482;BME280;20720;48.886;9.388;2022-12-29T03:41:45;97883.34;;;13.89;80.92
34482;BME280;20720;48.886;9.388;2022-12-29T03:44:11;97886.75;;;14.01;80.28
34482;BME280;20720;48.886;9.388;2022-12-29T03:46:37;97877.47;;;13.98;80.82
34482;BME280;20720;48.886;9.388;2022-12-29T03:49:02;97881.97;;;13.98;80.72
34482;BME280;20720;48.886;9.388;2022-12-29T03:51:28;97882.16;;;14.08;81.09
34482;BME280;20720;48.886;9.388;2022-12-29T03:53:53;97870.91;;;14.01;80.72
34482;BME280;20720;48.886;9.388;2022-12-29T03:56:18;97877.91;;;14.18;80.51
34482;BME280;20720;48.886;9.388;2022-12-29T03:58:43;97874.84;;;13.98;81.39
34482;BME280;20720;48.886;9.388;2022-12-29T04:01:09;97869.75;;;14.08;80.52
34482;BME280;20720;48.886;9.388;2022-12-29T04:03:34;97880.56;;;13.72;82.00
34482;BME280;20720;48.886;9.388;2022-12-29T04:05:59;97882.44;;;13.83;82.08
34482;BME280;20720;48.886;9.388;2022-12-29T04:08:24;97883.75;;;14.21;80.55
34482;BME280;20720;48.886;9.388;2022-12-29T04:10:50;97874.81;;;14.10;81.78
34482;BME280;20720;48.886;9.388;2022-12-29T04:13:15;97881.97;;;13.75;82.88
34482;BME280;20720;48.886;9.388;2022-12-29T04:15:43;97879.75;;;14.06;81.79
34482;BME280;20720;48.886;9.388;2022-12-29T04:18:08;97874.16;;;13.68;83.71
34482;BME280;20720;48.886;9.388;2022-12-29T04:20:33;97880.56;;;13.72;83.76
34482;BME280;20720;48.886;9.388;2022-12-29T04:23:17;97885.06;;;13.83;84.50
34482;BME280;20720;48.886;9.388;2022-12-29T04:25:45;97886.56;;;13.68;85.27
34482;BME280;20720;48.886;9.388;2022-12-29T04:28:12;97887.47;;;13.50;86.50
34482;BME280;20720;48.886;9.388;2022-12-29T04:30:37;97896.19;;;13.85;85.60
34482;BME280;20720;48.886;9.388;2022-12-29T04:33:03;97898.47;;;13.70;86.67
34482;BME280;20720;48.886;9.388;2022-12-29T04:35:28;97902.50;;;13.96;84.92
34482;BME280;20720;48.886;9.388;2022-12-29T04:37:53;97899.28;;;13.82;85.68
34482;BME280;20720;48.886;9.388;2022-12-29T04:40:18;97899.97;;;13.89;85.43
34482;BME280;20720;48.886;9.388;2022-12-29T04:42:44;97898.56;;;14.10;85.32
34482;BME280;20720;48.886;9.388;2022-12-29T04:45:09;97890.22;;;14.01;85.63
34482;BME280;20720;48.886;9.388;2022-12-29T04:47:35;97882.38;;;14.06;85.98
34482;BME280;20720;48.886;9.388;2022-12-29T04:50:00;97884.25;;;13.83;86.48
34482;BME280;20720;48.886;9.388;2022-12-29T04:52:26;97892.19;;;13.71;88.00
34482;BME280;20720;48.886;9.388;2022-12-29T04:54:51;97887.81;;;13.88;87.86
34482;BME280;20720;48.886;9.388;2022-12-29T04:57:16;97886.56;;;13.79;88.54
34482;BME280;20720;48.886;9.388;2022-12-29T04:59:41;97888.25;;;13.85;88.23
34482;BME280;20720;48.886;9.388;2022-12-29T05:02:07;97887.00;;;13.53;90.41
34482;BME280;20720;48.886;9.388;2022-12-29T05:04:32;97885.28;;;13.82;88.37
34482;BME280;20720;48.886;9.388;2022-12-29T05:06:57;97876.56;;;13.58;91.25
34482;BME280;20720;48.886;9.388;2022-12-29T05:09:23;97873.59;;;13.66;91.74
34482;BME280;20720;48.886;9.388;2022-12-29T05:11:49;97876.69;;;13.75;91.57
34482;BME280;20720;48.886;9.388;2022-12-29T05:14:14;97878.41;;;13.69;91.78
34482;BME280;20720;48.886;9.388;2022-12-29T05:16:39;97874.84;;;13.64;93.36
34482;BME280;20720;48.886;9.388;2022-12-29T05:19:05;97864.84;;;13.54;94.05
34482;BME280;20720;48.886;9.388;2022-12-29T05:21:30;97864.19;;;13.47;95.66
34482;BME280;20720;48.886;9.388;2022-12-29T05:23:57;97862.09;;;13.72;94.17
34482;BME280;20720;48.886;9.388;2022-12-29T05:26:22;97857.03;;;13.59;94.93
34482;BME280;20720;48.886;9.388;2022-12-29T05:28:48;97862.88;;;13.38;96.84
34482;BME280;20720;48.886;9.388;2022-12-29T05:31:13;97848.00;;;13.32;96.14
34482;BME280;20720;48.886;9.388;2022-12-29T05:33:38;97848.69;;;13.51;95.35
34482;BME280;20720;48.886;9.388;2022-12-29T05:36:05;97846.84;;;13.51;96.17
34482;BME280;20720;48.886;9.388;2022-12-29T05:38:31;97845.22;;;13.50;96.22
34482;BME280;20720;48.886;9.388;2022-12-29T05:40:56;97856.59;;;13.51;95.87
34482;BME280;20720;48.886;9.388;2022-12-29T05:43:21;97874.38;;;13.55;96.25
34482;BME280;20720;48.886;9.388;2022-12-29T05:45:48;97880.34;;;13.51;97.03
34482;BME280;20720;48.886;9.388;2022-12-29T05:48:13;97871.06;;;13.71;95.29
34482;BME280;20720;48.886;9.388;2022-12-29T05:50:39;97858.53;;;13.67;94.87
34482;BME280;20720;48.886;9.388;2022-12-29T05:53:04;97863.72;;;13.50;96.55
34482;BME280;20720;48.886;9.388;2022-12-29T05:55:29;97863.59;;;13.45;96.95
34482;BME280;20720;48.886;9.388;2022-12-29T05:57:54;97857.41;;;13.51;96.28
34482;BME280;20720;48.886;9.388;2022-12-29T06:00:20;97863.59;;;13.80;95.00
34482;BME280;20720;48.886;9.388;2022-12-29T06:02:45;97875.19;;;13.56;97.25
34482;BME280;20720;48.886;9.388;2022-12-29T06:05:10;97870.78;;;13.38;97.37
34482;BME280;20720;48.886;9.388;2022-12-29T06:07:35;97878.38;;;13.46;96.23
34482;BME280;20720;48.886;9.388;2022-12-29T06:10:01;97862.78;;;13.56;94.24
34482;BME280;20720;48.886;9.388;2022-12-29T06:12:26;97857.41;;;13.51;95.15
34482;BME280;20720;48.886;9.388;2022-12-29T06:14:51;97848.44;;;13.64;94.17
34482;BME280;20720;48.886;9.388;2022-12-29T06:17:17;97830.44;;;13.49;94.01
34482;BME280;20720;48.886;9.388;2022-12-29T06:19:42;97842.34;;;13.63;92.43
34482;BME280;20720;48.886;9.388;2022-12-29T06:22:08;97849.59;;;13.68;92.02
34482;BME280;20720;48.886;9.388;2022-12-29T06:24:37;97857.59;;;13.38;93.13
34482;BME280;20720;48.886;9.388;2022-12-29T06:27:02;97858.66;;;13.37;93.31
34482;BME280;20720;48.886;9.388;2022-12-29T06:29:27;97867.59;;;13.59;90.85
34482;BME280;20720;48.886;9.388;2022-12-29T06:31:53;97863.25;;;13.53;91.69
34482;BME280;20720;48.886;9.388;2022-12-29T06:34:21;97870.59;;;13.74;90.71
34482;BME280;20720;48.886;9.388;2022-12-29T06:36:46;97868.88;;;13.57;90.27
34482;BME280;20720;48.886;9.388;2022-12-29T06:39:11;97875.66;;;13.64;90.02
34482;BME280;20720;48.886;9.388;2022-12-29T06:41:37;97866.34;;;13.85;89.52
34482;BME280;20720;48.886;9.388;2022-12-29T06:44:02;97870.81;;;13.61;90.31
34482;BME280;20720;48.886;9.388;2022-12-29T06:46:28;97865.53;;;13.61;89.31
34482;BME280;20720;48.886;9.388;2022-12-29T06:48:53;97857.75;;;13.66;89.19
34482;BME280;20720;48.886;9.388;2022-12-29T06:51:18;97862.56;;;13.69;89.71
34482;BME280;20720;48.886;9.388;2022-12-29T06:53:43;97862.81;;;13.79;88.44
34482;BME280;20720;48.886;9.388;2022-12-29T06:56:09;97861.06;;;13.85;88.37
34482;BME280;20720;48.886;9.388;2022-12-29T06:58:34;97860.84;;;13.75;88.22
34482;BME280;20720;48.886;9.388;2022-12-29T07:00:59;97865.69;;;13.66;88.63
34482;BME280;20720;48.886;9.388;2022-12-29T07:03:24;97853.25;;;13.90;87.12
34482;BME280;20720;48.886;9.388;2022-12-29T07:05:50;97859.94;;;13.69;87.82
34482;BME280;20720;48.886;9.388;2022-12-29T07:08:15;97858.09;;;13.70;87.36
34482;BME280;20720;48.886;9.388;2022-12-29T07:10:41;97858.44;;;13.73;87.03
34482;BME280;20720;48.886;9.388;2022-12-29T07:13:06;97863.13;;;13.60;87.24
34482;BME280;20720;48.886;9.388;2022-12-29T07:15:33;97860.59;;;13.76;86.48
34482;BME280;20720;48.886;9.388;2022-12-29T07:17:58;97859.13;;;13.69;86.93
34482;BME280;20720;48.886;9.388;2022-12-29T07:20:23;97865.78;;;13.71;86.23
34482;BME280;20720;48.886;9.388;2022-12-29T07:22:48;97860.16;;;13.68;86.37
34482;BME280;20720;48.886;9.388;2022-12-29T07:25:14;97854.16;;;13.72;85.68
34482;BME280;20720;48.886;9.388;2022-12-29T07:27:39;97852.81;;;13.58;87.20
34482;BME280;20720;48.886;9.388;2022-12-29T07:30:05;97857.75;;;13.66;86.66
34482;BME280;20720;48.886;9.388;2022-12-29T07:32:33;97863.94;;;13.60;86.92
34482;BME280;20720;48.886;9.388;2022-12-29T07:34:59;97867.16;;;13.74;86.43
34482;BME280;20720;48.886;9.388;2022-12-29T07:37:24;97867.84;;;14.04;84.97
34482;BME280;20720;48.886;9.388;2022-12-29T07:39:49;97865.78;;;13.94;85.69
34482;BME280;20720;48.886;9.388;2022-12-29T07:42:14;97872.31;;;13.92;86.25
34482;BME280;20720;48.886;9.388;2022-12-29T07:44:40;97870.50;;;13.81;86.92
34482;BME280;20720;48.886;9.388;2022-12-29T07:47:05;97863.91;;;14.06;85.25
34482;BME280;20720;48.886;9.388;2022-12-29T07:49:30;97867.00;;;14.15;85.77
34482;BME280;20720;48.886;9.388;2022-12-29T07:51:56;97865.53;;;13.84;86.33
34482;BME280;20720;48.886;9.388;2022-12-29T07:54:21;97863.88;;;14.18;85.50
34482;BME280;20720;48.886;9.388;2022-12-29T07:56:47;97873.28;;;14.26;85.38
34482;BME280;20720;48.886;9.388;2022-12-29T07:59:13;97876.78;;;13.91;87.22
34482;BME280;20720;48.886;9.388;2022-12-29T08:01:38;97885.94;;;14.24;86.28
34482;BME280;20720;48.886;9.388;2022-12-29T08:04:04;97874.03;;;14.09;86.03
34482;BME280;20720;48.886;9.388;2022-12-29T08:06:30;97876.41;;;14.11;85.60
34482;BME280;20720;48.886;9.388;2022-12-29T08:08:56;97884.84;;;13.96;86.68
34482;BME280;20720;48.886;9.388;2022-12-29T08:11:21;97891.34;;;14.17;85.87
34482;BME280;20720;48.886;9.388;2022-12-29T08:13:47;97887.41;;;14.19;85.78
34482;BME280;20720;48.886;9.388;2022-12-29T08:16:12;97892.59;;;14.26;84.94
34482;BME280;20720;48.886;9.388;2022-12-29T08:18:37;97896.84;;;14.27;85.22
34482;BME280;20720;48.886;9.388;2022-12-29T08:21:03;97888.72;;;14.29;85.31
34482;BME280;20720;48.886;9.388;2022-12-29T08:23:29;97895.75;;;14.63;84.54
34482;BME280;20720;48.886;9.388;2022-12-29T08:26:03;97900.47;;;14.61;83.87
34482;BME280;20720;48.886;9.388;2022-12-29T08:28:30;97893.00;;;14.86;85.97
34482;BME280;20720;48.886;9.388;2022-12-29T08:31:00;97897.22;;;14.31;85.46
34482;BME280;20720;48.886;9.388;2022-12-29T08:33:26;97899.38;;;14.22;85.81
34482;BME280;20720;48.886;9.388;2022-12-29T08:35:52;97891.94;;;14.31;86.22
34482;BME280;20720;48.886;9.388;2022-12-29T08:38:17;97895.34;;;14.43;84.72
34482;BME280;20720;48.886;9.388;2022-12-29T08:40:43;97896.84;;;14.27;85.17
34482;BME280;20720;48.886;9.388;2022-12-29T08:43:08;97890.47;;;14.63;83.71
34482;BME280;20720;48.886;9.388;2022-12-29T08:45:34;97891.97;;;14.59;83.95
34482;BME280;20720;48.886;9.388;2022-12-29T08:47:59;97884.91;;;14.36;85.32
34482;BME280;20720;48.886;9.388;2022-12-29T08:50:24;97881.19;;;14.49;84.95
34482;BME280;20720;48.886;9.388;2022-12-29T08:52:50;97879.41;;;14.66;84.28
34482;BME280;20720;48.886;9.388;2022-12-29T08:55:15;97886.03;;;14.40;84.44
34482;BME280;20720;48.886;9.388;2022-12-29T08:57:40;97896.41;;;14.70;83.65
34482;BME280;20720;48.886;9.388;2022-12-29T09:00:07;97890.53;;;14.96;83.24
34482;BME280;20720;48.886;9.388;2022-12-29T09:02:32;97896.41;;;14.70;84.36
34482;BME280;20720;48.886;9.388;2022-12-29T09:04:58;97901.22;;;14.73;83.94
34482;BME280;20720;48.886;9.388;2022-12-29T09:07:24;97903.38;;;14.48;84.37
34482;BME280;20720;48.886;9.388;2022-12-29T09:09:49;97903.16;;;14.77;82.97
34482;BME280;20720;48.886;9.388;2022-12-29T09:12:16;97915.81;;;14.75;83.78
34482;BME280;20720;48.886;9.388;2022-12-29T09:14:42;97917.00;;;14.96;82.04
34482;BME280;20720;48.886;9.388;2022-12-29T09:17:08;97910.78;;;15.02;82.50
34482;BME280;20720;48.886;9.388;2022-12-29T09:19:52;97908.03;;;14.57;84.17
34482;BME280;20720;48.886;9.388;2022-12-29T09:22:18;97916.19;;;14.67;83.94
34482;BME280;20720;48.886;9.388;2022-12-29T09:24:43;97924.44;;;14.99;81.87
34482;BME280;20720;48.886;9.388;2022-12-29T09:27:08;97914.94;;;14.98;82.71
34482;BME280;20720;48.886;9.388;2022-12-29T09:29:34;97914.88;;;14.81;82.28
34482;BME280;20720;48.886;9.388;2022-12-29T09:31:59;97908.81;;;14.97;81.49
34482;BME280;20720;48.886;9.388;2022-12-29T09:34:24;97921.25;;;14.97;81.70
34482;BME280;20720;48.886;9.388;2022-12-29T09:36:49;97928.44;;;14.85;81.94
34482;BME280;20720;48.886;9.388;2022-12-29T09:39:15;97925.66;;;15.20;80.74
34482;BME280;20720;48.886;9.388;2022-12-29T09:41:58;97917.66;;;15.03;81.60
34482;BME280;20720;48.886;9.388;2022-12-29T09:44:42;97925.72;;;14.80;81.39
34482;BME280;20720;48.886;9.388;2022-12-29T09:47:13;97926.66;;;15.02;81.05
34482;BME280;20720;48.886;9.388;2022-12-29T09:49:48;97924.09;;;15.07;81.09
34482;BME280;20720;48.886;9.388;2022-12-29T09:52:19;97921.19;;;15.08;81.02
34482;BME280;20720;48.886;9.388;2022-12-29T09:59:50;97919.38;;;15.70;78.65
34482;BME280;20720;48.886;9.388;2022-12-29T10:02:36;97922.59;;;15.28;79.60
34482;BME280;20720;48.886;9.388;2022-12-29T10:05:02;97926.44;;;15.65;78.10
34482;BME280;20720;48.886;9.388;2022-12-29T10:07:42;97925.47;;;15.54;78.76
34482;BME280;20720;48.886;9.388;2022-12-29T10:13:14;97907.84;;;15.32;80.18
34482;BME280;20720;48.886;9.388;2022-12-29T10:19:02;97924.81;;;15.47;80.30
34482;BME280;20720;48.886;9.388;2022-12-29T10:21:39;97925.13;;;15.51;80.13
34482;BME280;20720;48.886;9.388;2022-12-29T10:24:11;97924.00;;;15.47;81.97
34482;BME280;20720;48.886;9.388;2022-12-29T10:26:40;97918.41;;;15.60;81.16
34482;BME280;20720;48.886;9.388;2022-12-29T10:29:19;97920.50;;;15.74;80.76
34482;BME280;20720;48.886;9.388;2022-12-29T10:31:59;97924.88;;;15.69;80.00
34482;BME280;20720;48.886;9.388;2022-12-29T10:34:36;97934.53;;;15.91;79.26
34482;BME280;20720;48.886;9.388;2022-12-29T10:37:09;97930.69;;;15.21;81.93
34482;BME280;20720;48.886;9.388;2022-12-29T10:39:41;97917.22;;;15.39;82.34
34482;BME280;20720;48.886;9.388;2022-12-29T10:44:51;97915.03;;;15.64;81.09
34482;BME280;20720;48.886;9.388;2022-12-29T10:47:19;97924.91;;;15.24;83.82
34482;BME280;20720;48.886;9.388;2022-12-29T10:49:47;97914.41;;;15.29;84.52
34482;BME280;20720;48.886;9.388;2022-12-29T10:52:15;97917.13;;;15.62;82.95
34482;BME280;20720;48.886;9.388;2022-12-29T10:55:02;97904.97;;;15.99;81.18
34482;BME280;20720;48.886;9.388;2022-12-29T10:57:40;97914.41;;;15.57;82.99
34482;BME280;20720;48.886;9.388;2022-12-29T11:00:17;97915.44;;;15.56;83.18
34482;BME280;20720;48.886;9.388;2022-12-29T11:05:34;97922.13;;;16.14;81.47
34482;BME280;20720;48.886;9.388;2022-12-29T11:08:04;97916.84;;;16.35;82.15
34482;BME280;20720;48.886;9.388;2022-12-29T11:13:04;97921.19;;;15.86;83.50
34482;BME280;20720;48.886;9.388;2022-12-29T11:15:41;97908.84;;;16.95;79.76
34482;BME280;20720;48.886;9.388;2022-12-29T11:20:42;97920.78;;;17.24;77.78
34482;BME280;20720;48.886;9.388;2022-12-29T11:23:41;97913.69;;;16.55;82.19
34482;BME280;20720;48.886;9.388;2022-12-29T11:26:17;97912.81;;;17.24;79.37
34482;BME280;20720;48.886;9.388;2022-12-29T11:29:09;97919.53;;;16.57;81.25
34482;BME280;20720;48.886;9.388;2022-12-29T11:31:44;97907.47;;;17.19;80.32
34482;BME280;20720;48.886;9.388;2022-12-29T11:34:17;97916.00;;;16.94;81.34
34482;BME280;20720;48.886;9.388;2022-12-29T11:36:43;97916.50;;;17.18;80.92
34482;BME280;20720;48.886;9.388;2022-12-29T11:39:25;97908.88;;;17.53;79.02
34482;BME280;20720;48.886;9.388;2022-12-29T11:41:53;97900.06;;;17.48;79.16
34482;BME280;20720;48.886;9.388;2022-12-29T11:44:18;97911.94;;;16.87;82.70
34482;BME280;20720;48.886;9.388;2022-12-29T11:46:46;97921.38;;;16.35;85.79
34482;BME280;20720;48.886;9.388;2022-12-29T11:49:19;97920.16;;;16.64;85.41
34482;BME280;20720;48.886;9.388;2022-12-29T11:51:47;97903.66;;;16.83;83.75
34482;BME280;20720;48.886;9.388;2022-12-29T11:54:30;97919.66;;;16.67;83.90
34482;BME280;20720;48.886;9.388;2022-12-29T11:56:57;97909.44;;;16.54;85.47
34482;BME280;20720;48.886;9.388;2022-12-29T12:01:52;97913.38;;;16.13;90.83
34482;BME280;20720;48.886;9.388;2022-12-29T12:04:20;97924.97;;;15.90;91.70
34482;BME280;20720;48.886;9.388;2022-12-29T12:06:57;97936.28;;;15.69;90.97
34482;BME280;20720;48.886;9.388;2022-12-29T12:09:31;97944.72;;;14.93;98.11
34482;BME280;20720;48.886;9.388;2022-12-29T12:11:59;97942.13;;;14.82;100.00
34482;BME280;20720;48.886;9.388;2022-12-29T12:17:14;97939.03;;;14.85;100.00
34482;BME280;20720;48.886;9.388;2022-12-29T12:19:57;97920.38;;;14.52;100.00
34482;BME280;20720;48.886;9.388;2022-12-29T12:22:48;97920.06;;;14.13;100.00
34482;BME280;20720;48.886;9.388;2022-12-29T12:25:27;97922.91;;;14.24;100.00
34482;BME280;20720;48.886;9.388;2022-12-29T12:28:00;97917.84;;;14.85;100.00
34482;BME280;20720;48.886;9.388;2022-12-29T12:30:36;97914.06;;;14.81;100.00
34482;BME280;20720;48.886;9.388;2022-12-29T12:33:23;97928.19;;;14.47;100.00
34482;BME280;20720;48.886;9.388;2022-12-29T12:41:38;97910.94;;;14.56;100.00
34482;BME280;20720;48.886;9.388;2022-12-29T12:51:55;97892.81;;;16.42;100.00
34482;BME280;20720;48.886;9.388;2022-12-29T12:57:53;97894.44;;;16.05;100.00
34482;BME280;20720;48.886;9.388;2022-12-29T13:00:22;97883.47;;;15.79;100.00
34482;BME280;20720;48.886;9.388;2022-12-29T13:03:12;97878.72;;;15.98;100.00
34482;BME280;20720;48.886;9.388;2022-12-29T13:05:57;97887.59;;;15.70;100.00
34482;BME280;20720;48.886;9.388;2022-12-29T13:11:38;97893.31;;;14.89;100.00
34482;BME280;20720;48.886;9.388;2022-12-29T13:14:32;97889.91;;;14.89;100.00
34482;BME280;20720;48.886;9.388;2022-12-29T13:17:21;97892.22;;;15.96;100.00
34482;BME280;20720;48.886;9.388;2022-12-29T13:19:53;97894.63;;;15.48;100.00
34482;BME280;20720;48.886;9.388;2022-12-29T13:25:24;97879.88;;;15.85;100.00
34482;BME280;20720;48.886;9.388;2022-12-29T13:30:50;97884.28;;;16.40;97.82
34482;BME280;20720;48.886;9.388;2022-12-29T13:33:30;97884.72;;;15.55;100.00
34482;BME280;20720;48.886;9.388;2022-12-29T13:38:49;97877.13;;;15.31;100.00
34482;BME280;20720;48.886;9.388;2022-12-29T13:43:52;97871.75;;;14.81;100.00
34482;BME280;20720;48.886;9.388;2022-12-29T13:46:24;97868.41;;;14.85;100.00
34482;BME280;20720;48.886;9.388;2022-12-29T13:48:56;97875.53;;;14.57;100.00
34482;BME280;20720;48.886;9.388;2022-12-29T13:51:23;97876.09;;;14.87;100.00
34482;BME280;20720;48.886;9.388;2022-12-29T13:54:05;97866.34;;;14.87;100.00
34482;BME280;20720;48.886;9.388;2022-12-29T13:57:08;97868.31;;;14.80;100.00
34482;BME280;20720;48.886;9.388;2022-12-29T14:00:03;97860.75;;;14.72;100.00
34482;BME280;20720;48.886;9.388;2022-12-29T14:05:31;97865.22;;;15.00;100.00
34482;BME280;20720;48.886;9.388;2022-12-29T14:08:02;97865.63;;;15.08;100.00
34482;BME280;20720;48.886;9.388;2022-12-29T14:10:37;97869.19;;;14.86;100.00
34482;BME280;20720;48.886;9.388;2022-12-29T14:13:18;97873.47;;;14.59;100.00
34482;BME280;20720;48.886;9.388;2022-12-29T14:15:51;97863.75;;;14.76;100.00
34482;BME280;20720;48.886;9.388;2022-12-29T14:18:20;97875.53;;;14.57;100.00
34482;BME280;20720;48.886;9.388;2022-12-29T14:20:55;97880.81;;;14.85;100.00
34482;BME280;20720;48.886;9.388;2022-12-29T14:28:34;97893.25;;;14.45;100.00
34482;BME280;20720;48.886;9.388;2022-12-29T14:31:04;97890.72;;;14.50;100.00
34482;BME280;20720;48.886;9.388;2022-12-29T14:33:32;97889.72;;;14.39;100.00
34482;BME280;20720;48.886;9.388;2022-12-29T14:36:19;97879.28;;;14.21;100.00
34482;BME280;20720;48.886;9.388;2022-12-29T14:38:45;97879.34;;;14.49;100.00
34482;BME280;20720;48.886;9.388;2022-12-29T14:41:24;97885.78;;;14.53;100.00
34482;BME280;20720;48.886;9.388;2022-12-29T14:43:54;97889.84;;;14.33;100.00
34482;BME280;20720;48.886;9.388;2022-12-29T14:46:20;97888.63;;;14.52;100.00
34482;BME280;20720;48.886;9.388;2022-12-29T14:48:45;97878.53;;;14.49;100.00